createdAt,value
2019-06-01T00:01:23.732Z,12.47
2019-06-01T00:03:52.172Z,12.30
2019-06-01T00:06:20.589Z,12.33
2019-06-01T00:08:49.343Z,11.07
2019-06-01T00:11:17.893Z,11.43
2019-06-01T00:13:47.589Z,11.57
2019-06-01T00:16:16.119Z,12.27
2019-06-01T00:18:44.553Z,11.83
2019-06-01T00:21:12.966Z,12.97
2019-06-01T00:23:42.446Z,12.73
2019-06-01T00:26:10.967Z,11.90
2019-06-01T00:28:39.412Z,11.90
2019-06-01T00:31:07.824Z,12.03
2019-06-01T00:33:36.273Z,13.83
2019-06-01T00:36:04.752Z,12.67
2019-06-01T00:38:33.194Z,12.23
2019-06-01T00:41:01.604Z,10.90
2019-06-01T00:43:30.039Z,11.60
2019-06-01T00:45:58.453Z,13.67
2019-06-01T00:48:26.894Z,12.50
2019-06-01T00:50:55.378Z,12.80
2019-06-01T00:53:23.889Z,13.20
2019-06-01T00:55:53.572Z,12.97
2019-06-01T00:58:22.157Z,12.20
2019-06-01T01:00:52.020Z,11.27
2019-06-01T01:03:20.820Z,11.70
2019-06-01T01:05:50.440Z,11.20
2019-06-01T01:08:19.168Z,11.60
2019-06-01T01:10:48.993Z,12.77
2019-06-01T01:13:19.251Z,13.17
2019-06-01T01:15:47.691Z,11.60
2019-06-01T01:18:16.765Z,12.50
2019-06-01T01:20:45.935Z,13.03
2019-06-01T01:23:14.457Z,13.87
2019-06-01T01:25:42.894Z,11.70
2019-06-01T01:28:11.382Z,12.23
2019-06-01T01:30:40.775Z,12.50
2019-06-01T01:33:09.173Z,12.60
2019-06-01T01:35:37.617Z,12.47
2019-06-01T01:38:06.026Z,13.60
2019-06-01T01:40:34.466Z,12.40
2019-06-01T01:43:02.886Z,13.17
2019-06-01T01:45:31.329Z,11.70
2019-06-01T01:47:59.744Z,12.50
2019-06-01T01:50:28.260Z,13.47
2019-06-01T01:52:57.203Z,12.50
2019-06-01T01:55:25.763Z,13.30
2019-06-01T01:57:55.346Z,11.50
2019-06-01T02:00:48.005Z,12.13
2019-06-01T02:03:16.415Z,12.00
2019-06-01T02:05:44.864Z,11.77
2019-06-01T02:08:13.268Z,13.00
2019-06-01T02:10:41.782Z,12.30
2019-06-01T02:13:10.330Z,11.80
2019-06-01T02:15:40.594Z,11.67
2019-06-01T02:18:09.001Z,10.70
2019-06-01T02:20:37.435Z,11.07
2019-06-01T02:23:06.195Z,10.57
2019-06-01T02:25:35.071Z,12.13
2019-06-01T02:28:03.499Z,12.30
2019-06-01T02:30:31.937Z,10.97
2019-06-01T02:33:01.867Z,11.10
2019-06-01T02:35:30.513Z,11.63
2019-06-01T02:38:00.182Z,11.50
2019-06-01T02:40:29.493Z,10.20
2019-06-01T02:42:59.302Z,7.63
2019-06-01T02:45:28.529Z,7.63
2019-06-01T02:47:57.505Z,6.10
2019-06-01T02:50:26.189Z,7.50
2019-06-01T02:52:55.542Z,7.73
2019-06-01T02:55:24.109Z,8.53
2019-06-01T02:57:52.559Z,8.80
2019-06-01T03:00:42.337Z,8.10
2019-06-01T03:03:10.846Z,9.30
2019-06-01T03:05:39.621Z,8.37
2019-06-01T03:08:08.533Z,10.43
2019-06-01T03:10:37.920Z,11.73
2019-06-01T03:13:08.342Z,10.57
2019-06-01T03:15:38.755Z,10.90
2019-06-01T03:18:07.787Z,11.60
2019-06-01T03:20:36.454Z,10.60
2019-06-01T03:23:05.763Z,10.10
2019-06-01T03:25:34.320Z,9.43
2019-06-01T03:28:04.503Z,10.37
2019-06-01T03:30:45.611Z,10.00
2019-06-01T03:33:14.139Z,10.40
2019-06-01T03:35:42.555Z,10.10
2019-06-01T03:38:11.195Z,11.17
2019-06-01T03:40:39.551Z,11.33
2019-06-01T03:43:09.244Z,11.20
2019-06-01T03:45:37.960Z,10.40
2019-06-01T03:48:06.760Z,10.30
2019-06-01T03:50:35.285Z,11.53
2019-06-01T03:53:03.887Z,11.13
2019-06-01T03:55:32.318Z,11.40
2019-06-01T03:58:01.006Z,11.10
2019-06-01T04:00:29.460Z,11.40
2019-06-01T04:02:57.894Z,11.90
2019-06-01T04:05:26.310Z,11.07
2019-06-01T04:07:54.766Z,11.20
2019-06-01T04:10:23.248Z,11.10
2019-06-01T04:12:51.695Z,12.57
2019-06-01T04:15:20.112Z,11.10
2019-06-01T04:17:48.551Z,11.60
2019-06-01T04:20:17.094Z,11.30
2019-06-01T04:22:45.508Z,10.83
2019-06-01T04:25:13.948Z,11.80
2019-06-01T04:27:42.361Z,11.37
2019-06-01T04:30:11.485Z,11.20
2019-06-01T04:32:49.489Z,10.30
2019-06-01T04:35:11.135Z,11.33
2019-06-01T04:37:39.764Z,11.13
2019-06-01T04:40:09.519Z,11.87
2019-06-01T04:42:38.138Z,10.60
2019-06-01T04:45:09.023Z,10.60
2019-06-01T04:47:37.524Z,10.60
2019-06-01T04:50:06.740Z,11.20
2019-06-01T04:52:35.319Z,10.77
2019-06-01T04:55:05.260Z,11.00
2019-06-01T04:57:33.717Z,11.30
2019-06-01T05:00:03.365Z,11.80
2019-06-01T05:02:32.209Z,10.60
2019-06-01T05:05:00.658Z,10.87
2019-06-01T05:07:29.072Z,10.70
2019-06-01T05:09:57.510Z,10.80
2019-06-01T05:12:25.920Z,10.10
2019-06-01T05:14:54.360Z,9.73
2019-06-01T05:17:22.767Z,9.40
2019-06-01T05:19:51.227Z,10.70
2019-06-01T05:22:19.638Z,10.77
2019-06-01T05:24:48.078Z,10.10
2019-06-01T05:27:17.400Z,10.27
2019-06-01T05:29:46.000Z,9.80
2019-06-01T05:32:14.666Z,9.50
2019-06-01T05:34:43.058Z,9.50
2019-06-01T05:37:12.349Z,8.60
2019-06-01T05:39:40.891Z,8.53
2019-06-01T05:42:10.413Z,7.43
2019-06-01T05:44:39.114Z,6.87
2019-06-01T05:47:07.614Z,7.37
2019-06-01T05:49:36.015Z,6.73
2019-06-01T05:52:04.619Z,6.37
2019-06-01T05:54:33.100Z,7.00
2019-06-01T05:57:01.533Z,6.50
2019-06-01T05:59:29.945Z,6.13
2019-06-01T06:01:58.379Z,6.30
2019-06-01T06:04:26.794Z,6.57
2019-06-01T06:06:55.229Z,7.57
2019-06-01T06:09:23.635Z,7.00
2019-06-01T06:11:53.957Z,7.77
2019-06-01T06:14:22.960Z,7.20
2019-06-01T06:16:51.386Z,7.43
2019-06-01T06:19:22.175Z,7.90
2019-06-01T06:21:49.959Z,8.33
2019-06-01T06:24:18.615Z,8.37
2019-06-01T06:26:47.168Z,7.17
2019-06-01T06:29:16.896Z,8.10
2019-06-01T06:31:45.463Z,7.63
2019-06-01T06:34:15.272Z,8.23
2019-06-01T06:36:43.756Z,8.70
2019-06-01T06:39:12.162Z,7.50
2019-06-01T06:41:40.564Z,7.47
2019-06-01T06:44:09.017Z,7.93
2019-06-01T06:46:37.407Z,7.87
2019-06-01T06:49:05.849Z,8.20
2019-06-01T06:51:34.253Z,8.13
2019-06-01T06:54:02.688Z,8.60
2019-06-01T06:56:31.093Z,8.13
2019-06-01T06:58:59.530Z,8.37
2019-06-01T07:01:27.932Z,8.17
2019-06-01T07:04:09.391Z,8.20
2019-06-01T07:06:27.675Z,8.53
2019-06-01T07:08:56.223Z,8.80
2019-06-01T07:11:25.357Z,8.87
2019-06-01T07:13:53.950Z,9.40
2019-06-01T07:16:23.408Z,9.57
2019-06-01T07:18:51.977Z,8.40
2019-06-01T07:21:21.549Z,8.40
2019-06-01T07:23:50.102Z,8.50
2019-06-01T07:26:19.764Z,8.30
2019-06-01T07:28:48.329Z,8.30
2019-06-01T07:31:16.722Z,8.87
2019-06-01T07:33:45.161Z,9.27
2019-06-01T07:36:13.567Z,9.00
2019-06-01T07:38:42.012Z,9.63
2019-06-01T07:41:10.422Z,8.67
2019-06-01T07:43:38.853Z,8.70
2019-06-01T07:46:07.273Z,9.67
2019-06-01T07:48:35.697Z,9.50
2019-06-01T07:51:04.114Z,9.23
2019-06-01T07:53:32.550Z,9.53
2019-06-01T07:56:00.952Z,12.40
2019-06-01T07:58:29.414Z,11.63
2019-06-01T08:00:57.822Z,12.90
2019-06-01T08:03:28.907Z,13.30
2019-06-01T08:05:56.401Z,12.80
2019-06-01T08:08:25.560Z,12.00
2019-06-01T08:10:53.996Z,12.17
2019-06-01T08:13:23.395Z,12.07
2019-06-01T08:15:52.028Z,11.63
2019-06-01T08:18:21.805Z,11.57
2019-06-01T08:20:50.449Z,8.77
2019-06-01T08:23:18.858Z,10.40
2019-06-01T08:25:47.292Z,11.23
2019-06-01T08:28:15.697Z,9.70
2019-06-01T08:30:44.133Z,9.70
2019-06-01T08:33:12.532Z,9.80
2019-06-01T08:35:40.972Z,9.37
2019-06-01T08:38:09.374Z,10.20
2019-06-01T08:40:37.874Z,9.90
2019-06-01T08:43:06.275Z,9.00
2019-06-01T08:45:37.496Z,10.10
2019-06-01T08:48:04.915Z,9.50
2019-06-01T08:50:34.061Z,9.47
2019-06-01T08:53:02.556Z,9.40
2019-06-01T08:55:32.226Z,9.30
2019-06-01T08:58:00.753Z,10.60
2019-06-01T09:00:30.509Z,10.17
2019-06-01T09:02:59.161Z,9.27
2019-06-01T09:05:28.891Z,9.97
2019-06-01T09:07:57.721Z,9.93
2019-06-01T09:10:27.376Z,9.43
2019-06-01T09:12:55.953Z,8.30
2019-06-01T09:15:25.594Z,8.60
2019-06-01T09:17:54.129Z,9.73
2019-06-01T09:20:22.564Z,9.13
2019-06-01T09:22:50.974Z,8.70
2019-06-01T09:25:19.422Z,8.20
2019-06-01T09:27:47.810Z,8.10
2019-06-01T09:30:16.757Z,10.03
2019-06-01T09:32:45.162Z,8.10
2019-06-01T09:35:13.676Z,10.07
2019-06-01T09:37:45.621Z,9.30
2019-06-01T09:40:12.503Z,8.87
2019-06-01T09:42:40.914Z,8.60
2019-06-01T09:45:09.719Z,9.70
2019-06-01T09:47:38.125Z,7.97
2019-06-01T09:50:06.973Z,8.77
2019-06-01T09:52:35.584Z,8.90
2019-06-01T09:55:05.731Z,8.40
2019-06-01T09:57:34.277Z,7.30
2019-06-01T10:00:02.635Z,8.33
2019-06-01T10:02:32.090Z,9.00
2019-06-01T10:05:00.924Z,7.13
2019-06-01T10:07:30.842Z,7.70
2019-06-01T10:09:59.343Z,8.27
2019-06-01T10:12:27.773Z,8.10
2019-06-01T10:14:56.184Z,7.77
2019-06-01T10:17:24.615Z,7.00
2019-06-01T10:19:53.016Z,7.30
2019-06-01T10:22:21.462Z,7.50
2019-06-01T10:24:49.855Z,6.93
2019-06-01T10:27:18.314Z,8.57
2019-06-01T10:29:46.772Z,7.40
2019-06-01T10:32:15.233Z,8.03
2019-06-01T10:34:43.683Z,7.90
2019-06-01T10:37:12.186Z,7.80
2019-06-01T10:39:41.411Z,7.60
2019-06-01T10:42:09.900Z,7.43
2019-06-01T10:44:42.246Z,7.10
2019-06-01T10:47:08.469Z,7.17
2019-06-01T10:49:37.947Z,7.17
2019-06-01T10:52:06.485Z,6.43
2019-06-01T10:54:36.047Z,6.80
2019-06-01T10:57:04.668Z,7.63
2019-06-01T10:59:34.180Z,6.67
2019-06-01T11:02:02.682Z,5.73
2019-06-01T11:04:31.086Z,7.37
2019-06-01T11:06:59.514Z,6.93
2019-06-01T11:09:27.924Z,6.20
2019-06-01T11:11:56.349Z,7.57
2019-06-01T11:14:24.774Z,6.40
2019-06-01T11:16:56.522Z,6.37
2019-06-01T11:19:23.339Z,5.67
2019-06-01T11:21:51.807Z,6.60
2019-06-01T11:24:20.264Z,6.03
2019-06-01T11:26:48.663Z,7.13
2019-06-01T11:29:17.099Z,6.43
2019-06-01T11:31:45.503Z,6.60
2019-06-01T11:34:13.937Z,5.63
2019-06-01T11:37:03.529Z,6.00
2019-06-01T11:39:12.498Z,6.00
2019-06-01T11:41:40.907Z,5.40
2019-06-01T11:44:09.334Z,5.57
2019-06-01T11:46:38.857Z,6.13
2019-06-01T11:49:07.449Z,5.30
2019-06-01T11:51:36.950Z,5.97
2019-06-01T11:54:05.508Z,5.70
2019-06-01T11:56:35.096Z,6.83
2019-06-01T11:59:03.630Z,5.90
2019-06-01T12:01:32.033Z,5.63
2019-06-01T12:04:00.468Z,5.90
2019-06-01T12:06:28.886Z,6.20
2019-06-01T12:08:57.304Z,5.40
2019-06-01T12:11:25.708Z,6.13
2019-06-01T12:13:54.145Z,5.80
2019-06-01T12:16:22.544Z,6.10
2019-06-01T12:18:50.977Z,6.20
2019-06-01T12:21:19.389Z,6.57
2019-06-01T12:23:47.823Z,6.53
2019-06-01T12:26:16.234Z,5.80
2019-06-01T12:28:45.815Z,5.93
2019-06-01T12:31:14.350Z,6.37
2019-06-01T12:33:43.947Z,6.10
2019-06-01T12:36:12.676Z,5.60
2019-06-01T12:38:48.578Z,6.20
2019-06-01T12:41:16.990Z,5.23
2019-06-01T12:43:47.745Z,6.37
2019-06-01T12:46:16.342Z,5.30
2019-06-01T12:48:44.773Z,5.90
2019-06-01T12:51:13.176Z,5.70
2019-06-01T12:53:42.406Z,6.20
2019-06-01T12:56:10.894Z,6.80
2019-06-01T12:58:39.848Z,6.77
2019-06-01T13:01:08.408Z,5.90
2019-06-01T13:03:36.812Z,5.20
2019-06-01T13:06:05.346Z,6.87
2019-06-01T13:08:33.727Z,6.60
2019-06-01T13:11:02.183Z,5.93
2019-06-01T13:13:30.583Z,6.10
2019-06-01T13:15:59.011Z,5.87
2019-06-01T13:18:27.434Z,5.63
2019-06-01T13:20:55.850Z,6.40
2019-06-01T13:23:24.259Z,7.37
2019-06-01T13:25:52.694Z,6.27
2019-06-01T13:28:28.935Z,5.97
2019-06-01T13:30:52.873Z,6.00
2019-06-01T13:33:21.534Z,5.67
2019-06-01T13:35:50.626Z,5.33
2019-06-01T13:38:19.116Z,5.43
2019-06-01T13:40:47.543Z,7.47
2019-06-01T13:43:15.945Z,5.70
2019-06-01T13:45:45.239Z,5.27
2019-06-01T13:48:13.766Z,6.80
2019-06-01T13:50:43.457Z,6.67
2019-06-01T13:53:12.091Z,7.27
2019-06-01T13:55:40.521Z,5.60
2019-06-01T13:58:08.927Z,6.30
2019-06-01T14:00:37.367Z,5.43
2019-06-01T14:03:05.834Z,5.97
2019-06-01T14:05:34.265Z,6.10
2019-06-01T14:08:02.748Z,6.17
2019-06-01T14:10:31.144Z,5.80
2019-06-01T14:12:59.578Z,6.20
2019-06-01T14:15:27.985Z,6.40
2019-06-01T14:17:56.552Z,5.83
2019-06-01T14:20:24.997Z,6.40
2019-06-01T14:22:54.066Z,5.20
2019-06-01T14:25:22.609Z,5.80
2019-06-01T14:27:52.175Z,6.13
2019-06-01T14:30:23.943Z,6.47
2019-06-01T14:32:50.879Z,5.80
2019-06-01T14:35:19.287Z,6.57
2019-06-01T14:37:48.713Z,5.93
2019-06-01T14:40:17.542Z,6.83
2019-06-01T14:42:46.817Z,5.73
2019-06-01T14:45:15.692Z,6.83
2019-06-01T14:47:44.119Z,5.00
2019-06-01T14:50:12.679Z,5.40
2019-06-01T14:52:41.100Z,5.57
2019-06-01T14:55:10.644Z,6.23
2019-06-01T14:57:39.080Z,5.80
2019-06-01T15:00:09.430Z,5.20
2019-06-01T15:02:37.927Z,4.63
2019-06-01T15:05:08.274Z,5.40
2019-06-01T15:07:36.773Z,5.27
2019-06-01T15:10:08.022Z,5.37
2019-06-01T15:12:36.460Z,5.87
2019-06-01T15:15:08.839Z,6.50
2019-06-01T15:17:37.338Z,5.40
2019-06-01T15:20:09.173Z,5.57
2019-06-01T15:22:37.769Z,5.53
2019-06-01T15:25:07.223Z,5.43
2019-06-01T15:27:35.649Z,4.90
2019-06-01T15:30:06.102Z,4.10
2019-06-01T15:32:34.561Z,4.83
2019-06-01T15:35:03.473Z,4.87
2019-06-01T15:37:31.891Z,4.50
2019-06-01T15:40:00.320Z,4.60
2019-06-01T15:42:28.725Z,6.40
2019-06-01T15:44:57.299Z,5.43
2019-06-01T15:47:25.737Z,5.20
2019-06-01T15:49:54.172Z,6.20
2019-06-01T15:52:22.575Z,6.50
2019-06-01T15:54:52.094Z,6.00
2019-06-01T15:57:20.600Z,7.13
2019-06-01T15:59:49.022Z,5.00
2019-06-01T16:02:17.435Z,5.40
2019-06-01T16:04:45.871Z,4.20
2019-06-01T16:07:14.277Z,4.40
2019-06-01T16:09:43.514Z,4.30
2019-06-01T16:12:12.167Z,4.57
2019-06-01T16:14:40.596Z,4.53
2019-06-01T16:17:09.065Z,4.30
2019-06-01T16:19:37.497Z,4.40
2019-06-01T16:22:05.898Z,4.30
2019-06-01T16:24:34.325Z,4.33
2019-06-01T16:27:02.774Z,5.00
2019-06-01T16:29:31.163Z,6.87
2019-06-01T16:32:00.733Z,4.10
2019-06-01T16:34:29.283Z,4.00
2019-06-01T16:36:58.810Z,4.97
2019-06-01T16:39:27.406Z,4.43
2019-06-01T16:41:55.808Z,5.17
2019-06-01T16:44:24.304Z,4.70
2019-06-01T16:46:52.709Z,4.30
2019-06-01T16:49:21.121Z,4.60
2019-06-01T16:51:52.628Z,4.70
2019-06-01T16:54:21.102Z,4.70
2019-06-01T16:56:49.594Z,4.80
2019-06-01T16:59:18.171Z,5.13
2019-06-01T17:01:46.601Z,4.93
2019-06-01T17:04:15.000Z,5.67
2019-06-01T17:06:43.506Z,3.90
2019-06-01T17:09:11.981Z,4.90
2019-06-01T17:11:40.410Z,4.80
2019-06-01T17:14:08.887Z,4.30
2019-06-01T17:16:37.330Z,4.00
2019-06-01T17:19:07.154Z,4.03
2019-06-01T17:21:35.794Z,4.57
2019-06-01T17:24:05.980Z,4.20
2019-06-01T17:26:34.557Z,3.87
2019-06-01T17:29:04.021Z,4.10
2019-06-01T17:31:32.636Z,4.27
2019-06-01T17:34:01.297Z,4.50
2019-06-01T17:36:31.018Z,4.77
2019-06-01T17:38:59.811Z,4.27
2019-06-01T17:41:28.323Z,3.97
2019-06-01T17:43:56.735Z,4.00
2019-06-01T17:46:25.319Z,4.07
2019-06-01T17:48:53.796Z,3.67
2019-06-01T17:51:22.280Z,4.13
2019-06-01T17:53:53.266Z,3.43
2019-06-01T17:56:20.840Z,4.07
2019-06-01T17:58:49.253Z,4.27
2019-06-01T18:01:17.684Z,4.30
2019-06-01T18:03:46.094Z,4.07
2019-06-01T18:06:14.515Z,4.97
2019-06-01T18:08:42.919Z,4.00
2019-06-01T18:11:12.175Z,5.40
2019-06-01T18:13:40.704Z,5.90
2019-06-01T18:16:10.324Z,6.40
2019-06-01T18:18:38.991Z,6.20
2019-06-01T18:21:08.438Z,6.00
2019-06-01T18:23:36.986Z,6.00
2019-06-01T18:26:06.764Z,6.97
2019-06-01T18:28:35.363Z,6.50
2019-06-01T18:31:04.566Z,6.60
2019-06-01T18:33:33.116Z,7.00
2019-06-01T18:36:01.529Z,7.77
2019-06-01T18:38:29.959Z,9.57
2019-06-01T18:41:09.407Z,7.97
2019-06-01T18:43:28.520Z,8.40
2019-06-01T18:45:57.092Z,8.10
2019-06-01T18:48:25.716Z,7.70
2019-06-01T18:50:54.097Z,8.57
2019-06-01T18:53:22.533Z,9.00
2019-06-01T18:55:50.947Z,8.37
2019-06-01T18:58:19.382Z,8.37
2019-06-01T19:00:47.796Z,8.50
2019-06-01T19:03:16.234Z,8.17
2019-06-01T19:05:44.647Z,8.37
2019-06-01T19:08:13.677Z,9.30
2019-06-01T19:10:42.335Z,8.77
2019-06-01T19:13:11.685Z,8.27
2019-06-01T19:15:40.416Z,8.57
2019-06-01T19:18:10.343Z,9.33
2019-06-01T19:20:38.944Z,8.23
2019-06-01T19:23:08.583Z,10.07
2019-06-01T19:25:37.171Z,8.90
2019-06-01T19:28:06.831Z,9.20
2019-06-01T19:30:37.531Z,8.83
2019-06-01T19:33:10.012Z,9.60
2019-06-01T19:35:37.906Z,9.20
2019-06-01T19:38:07.022Z,8.80
2019-06-01T19:40:37.136Z,8.20
2019-06-01T19:43:07.469Z,8.90
2019-06-01T19:45:35.938Z,8.77
2019-06-01T19:48:08.037Z,8.93
2019-06-01T19:50:36.846Z,8.90
2019-06-01T19:53:05.727Z,8.10
2019-06-01T19:55:34.235Z,9.40
2019-06-01T19:58:02.824Z,9.07
2019-06-01T20:00:31.330Z,8.20
2019-06-01T20:02:59.728Z,7.77
2019-06-01T20:05:28.167Z,8.10
2019-06-01T20:07:56.575Z,7.10
2019-06-01T20:10:25.046Z,8.40
2019-06-01T20:12:53.490Z,8.37
2019-06-01T20:15:21.992Z,9.70
2019-06-01T20:17:50.398Z,9.00
2019-06-01T20:20:20.678Z,9.07
2019-06-01T20:22:49.158Z,8.33
2019-06-01T20:25:17.861Z,8.90
2019-06-01T20:27:46.417Z,9.30
2019-06-01T20:30:15.779Z,9.00
2019-06-01T20:32:44.316Z,8.90
2019-06-01T20:35:13.925Z,9.50
2019-06-01T20:37:42.432Z,8.43
2019-06-01T20:40:12.118Z,9.27
2019-06-01T20:42:40.676Z,8.50
2019-06-01T20:45:10.450Z,7.53
2019-06-01T20:47:38.861Z,8.80
2019-06-01T20:50:12.603Z,9.27
2019-06-01T20:52:41.245Z,8.50
2019-06-01T20:55:11.026Z,9.20
2019-06-01T20:57:39.463Z,9.83
2019-06-01T21:00:09.676Z,9.30
2019-06-01T21:02:38.478Z,9.70
2019-06-01T21:05:08.225Z,9.20
2019-06-01T21:07:36.740Z,8.70
2019-06-01T21:10:09.064Z,8.03
2019-06-01T21:12:44.825Z,8.03
2019-06-01T21:15:07.891Z,9.00
2019-06-01T21:17:36.398Z,7.97
2019-06-01T21:20:07.602Z,8.03
2019-06-01T21:22:36.065Z,8.87
2019-06-01T21:25:06.014Z,9.50
2019-06-01T21:27:34.443Z,8.00
2019-06-01T21:30:03.599Z,8.27
2019-06-01T21:32:32.034Z,8.43
2019-06-01T21:35:00.447Z,8.57
2019-06-01T21:37:28.882Z,8.00
2019-06-01T21:39:57.292Z,8.27
2019-06-01T21:42:26.115Z,8.30
2019-06-01T21:44:54.537Z,8.57
2019-06-01T21:47:23.811Z,8.30
2019-06-01T21:49:52.348Z,7.73
2019-06-01T21:52:21.858Z,8.07
2019-06-01T21:54:50.483Z,6.73
2019-06-01T21:57:19.948Z,9.80
2019-06-01T21:59:48.600Z,9.47
2019-06-01T22:02:17.120Z,8.80
2019-06-01T22:04:45.597Z,7.70
2019-06-01T22:07:14.099Z,8.30
2019-06-01T22:09:42.509Z,9.37
2019-06-01T22:12:10.959Z,9.63
2019-06-01T22:14:39.376Z,9.90
2019-06-01T22:17:07.815Z,10.50
2019-06-01T22:19:36.221Z,9.70
2019-06-01T22:22:04.794Z,9.13
2019-06-01T22:24:33.209Z,10.63
2019-06-01T22:27:01.636Z,10.90
2019-06-01T22:29:30.054Z,9.40
2019-06-01T22:31:58.460Z,8.30
2019-06-01T22:34:27.026Z,9.67
2019-06-01T22:36:55.378Z,9.60
2019-06-01T22:39:24.785Z,8.67
2019-06-01T22:41:53.301Z,9.50
2019-06-01T22:44:22.107Z,10.87
2019-06-01T22:46:50.800Z,11.50
2019-06-01T22:49:20.587Z,10.43
2019-06-01T22:51:49.127Z,9.20
2019-06-01T22:54:17.561Z,10.50
2019-06-01T22:56:45.975Z,11.20
2019-06-01T22:59:14.409Z,8.10
2019-06-01T23:01:42.823Z,8.50
2019-06-01T23:04:11.265Z,8.27
2019-06-01T23:06:39.674Z,9.00
2019-06-01T23:09:10.251Z,8.07
2019-06-01T23:11:38.662Z,7.30
2019-06-01T23:14:07.173Z,7.83
2019-06-01T23:16:35.587Z,8.13
2019-06-01T23:19:04.087Z,8.00
2019-06-01T23:21:32.491Z,8.97
2019-06-01T23:24:00.930Z,8.63
2019-06-01T23:26:30.281Z,9.50
2019-06-01T23:28:58.840Z,10.07
2019-06-01T23:31:28.464Z,10.33
2019-06-01T23:33:57.063Z,11.60
2019-06-01T23:36:26.508Z,10.23
2019-06-01T23:38:55.125Z,10.57
2019-06-01T23:41:24.483Z,11.13
2019-06-01T23:44:07.849Z,10.60
2019-06-01T23:46:23.086Z,10.37
2019-06-01T23:48:51.499Z,10.90
2019-06-01T23:51:19.934Z,7.70
2019-06-01T23:53:48.346Z,9.73
2019-06-01T23:56:16.784Z,7.60
2019-06-01T23:58:45.200Z,7.10
